Cid, North Carolina
Current Conditions -  °F | °C
As of 5:55 PM on Saturday 20 Dec 2014 (Local Time) from KEXX Reporting Station
Broken Clouds Broken Clouds  
Wind Chill: 39°   Ceiling: 7500
Heat Index: 39°   Visibility: 10mi
Dew Point: 33°   Wind: 3mph
Humidity: 79%   Direction: 80°E
Pressure: 30.23"   Gusts: NA
Location:  35.7974°N, 80.2541°W
Report Text: KEXX 202255Z AUTO 08003KT 10SM SCT032 BKN075 04/01 A3023 RMK AO2 T00400006
Loading
Personal Weather Stations






























Interactive Weather Map New forecast layout! Learn more

10-Day Weather Forecast

Advertisements
Track Severe Weather on mobile